sensor_id;sensor_type;location;lat;lon;timestamp;temperature;humidity
34279;DHT22;20538;51.528;9.942;2023-06-22T00:00:00;18.90;99.90
34279;DHT22;20538;51.528;9.942;2023-06-22T00:02:26;18.90;99.90
34279;DHT22;20538;51.528;9.942;2023-06-22T00:04:52;18.80;99.90
34279;DHT22;20538;51.528;9.942;2023-06-22T00:07:17;18.90;99.90
34279;DHT22;20538;51.528;9.942;2023-06-22T00:09:43;18.80;99.90
34279;DHT22;20538;51.528;9.942;2023-06-22T00:12:09;18.90;99.90
34279;DHT22;20538;51.528;9.942;2023-06-22T00:14:34;18.80;99.90
34279;DHT22;20538;51.528;9.942;2023-06-22T00:17:00;18.80;99.90
34279;DHT22;20538;51.528;9.942;2023-06-22T00:19:25;18.90;99.90
34279;DHT22;20538;51.528;9.942;2023-06-22T00:21:51;18.80;99.90
34279;DHT22;20538;51.528;9.942;2023-06-22T00:24:20;18.80;99.90
34279;DHT22;20538;51.528;9.942;2023-06-22T00:26:47;18.60;99.90
34279;DHT22;20538;51.528;9.942;2023-06-22T00:29:13;18.60;99.90
34279;DHT22;20538;51.528;9.942;2023-06-22T00:31:38;18.60;99.90
34279;DHT22;20538;51.528;9.942;2023-06-22T00:34:04;18.60;99.90
34279;DHT22;20538;51.528;9.942;2023-06-22T00:36:32;18.60;99.90
34279;DHT22;20538;51.528;9.942;2023-06-22T00:38:57;18.60;99.90
34279;DHT22;20538;51.528;9.942;2023-06-22T00:41:23;18.70;99.90
34279;DHT22;20538;51.528;9.942;2023-06-22T00:43:48;18.70;99.90
34279;DHT22;20538;51.528;9.942;2023-06-22T00:46:14;18.80;99.90
34279;DHT22;20538;51.528;9.942;2023-06-22T00:48:40;18.80;99.90
34279;DHT22;20538;51.528;9.942;2023-06-22T00:51:10;18.80;99.90
34279;DHT22;20538;51.528;9.942;2023-06-22T00:53:35;18.80;99.90
34279;DHT22;20538;51.528;9.942;2023-06-22T00:56:02;18.80;99.90
34279;DHT22;20538;51.528;9.942;2023-06-22T00:58:29;18.80;99.90
34279;DHT22;20538;51.528;9.942;2023-06-22T01:00:55;18.90;99.90
34279;DHT22;20538;51.528;9.942;2023-06-22T01:03:20;18.80;99.90
34279;DHT22;20538;51.528;9.942;2023-06-22T01:05:46;18.90;99.90
34279;DHT22;20538;51.528;9.942;2023-06-22T01:08:29;18.90;99.90
34279;DHT22;20538;51.528;9.942;2023-06-22T01:11:10;19.00;99.90
34279;DHT22;20538;51.528;9.942;2023-06-22T01:16:24;19.00;99.90
34279;DHT22;20538;51.528;9.942;2023-06-22T01:18:52;18.90;99.90
34279;DHT22;20538;51.528;9.942;2023-06-22T01:21:21;18.90;99.90
34279;DHT22;20538;51.528;9.942;2023-06-22T01:29:27;18.80;99.90
34279;DHT22;20538;51.528;9.942;2023-06-22T01:31:54;18.80;99.90
34279;DHT22;20538;51.528;9.942;2023-06-22T01:34:21;18.80;99.90
34279;DHT22;20538;51.528;9.942;2023-06-22T01:36:47;18.80;99.90
34279;DHT22;20538;51.528;9.942;2023-06-22T01:39:13;18.80;99.90
34279;DHT22;20538;51.528;9.942;2023-06-22T01:41:41;18.80;99.90
34279;DHT22;20538;51.528;9.942;2023-06-22T01:44:08;18.70;99.90
34279;DHT22;20538;51.528;9.942;2023-06-22T01:46:35;18.70;99.90
34279;DHT22;20538;51.528;9.942;2023-06-22T01:49:04;18.70;99.90
34279;DHT22;20538;51.528;9.942;2023-06-22T01:51:30;18.80;99.90
34279;DHT22;20538;51.528;9.942;2023-06-22T01:53:56;18.80;99.90
34279;DHT22;20538;51.528;9.942;2023-06-22T01:56:22;18.80;99.90
34279;DHT22;20538;51.528;9.942;2023-06-22T01:59:12;18.80;99.90
34279;DHT22;20538;51.528;9.942;2023-06-22T02:01:48;18.80;99.90
34279;DHT22;20538;51.528;9.942;2023-06-22T02:04:24;18.80;99.90
34279;DHT22;20538;51.528;9.942;2023-06-22T02:06:55;18.80;99.90
34279;DHT22;20538;51.528;9.942;2023-06-22T02:09:23;18.80;99.90
34279;DHT22;20538;51.528;9.942;2023-06-22T02:11:52;18.80;99.90
34279;DHT22;20538;51.528;9.942;2023-06-22T02:14:22;18.90;99.90
34279;DHT22;20538;51.528;9.942;2023-06-22T02:16:48;18.80;99.90
34279;DHT22;20538;51.528;9.942;2023-06-22T02:19:14;18.80;99.90
34279;DHT22;20538;51.528;9.942;2023-06-22T02:21:41;18.90;99.90
34279;DHT22;20538;51.528;9.942;2023-06-22T02:24:07;18.90;99.90
34279;DHT22;20538;51.528;9.942;2023-06-22T02:26:33;18.80;99.90
34279;DHT22;20538;51.528;9.942;2023-06-22T02:28:59;18.80;99.90
34279;DHT22;20538;51.528;9.942;2023-06-22T02:31:25;18.90;99.90
34279;DHT22;20538;51.528;9.942;2023-06-22T02:33:59;18.90;99.90
34279;DHT22;20538;51.528;9.942;2023-06-22T02:36:25;18.80;99.90
34279;DHT22;20538;51.528;9.942;2023-06-22T02:38:53;18.90;99.90
34279;DHT22;20538;51.528;9.942;2023-06-22T02:41:19;18.90;99.90
34279;DHT22;20538;51.528;9.942;2023-06-22T02:43:45;18.90;99.90
34279;DHT22;20538;51.528;9.942;2023-06-22T02:46:12;18.90;99.90
34279;DHT22;20538;51.528;9.942;2023-06-22T02:48:41;18.90;99.90
34279;DHT22;20538;51.528;9.942;2023-06-22T02:51:07;18.90;99.90
34279;DHT22;20538;51.528;9.942;2023-06-22T02:53:33;18.80;99.90
34279;DHT22;20538;51.528;9.942;2023-06-22T02:56:00;18.80;99.90
34279;DHT22;20538;51.528;9.942;2023-06-22T02:58:27;18.80;99.90
34279;DHT22;20538;51.528;9.942;2023-06-22T03:00:52;18.80;99.90
34279;DHT22;20538;51.528;9.942;2023-06-22T03:03:19;18.80;99.90
34279;DHT22;20538;51.528;9.942;2023-06-22T03:05:44;18.80;99.90
34279;DHT22;20538;51.528;9.942;2023-06-22T03:08:10;18.80;99.90
34279;DHT22;20538;51.528;9.942;2023-06-22T03:10:35;18.80;99.90
34279;DHT22;20538;51.528;9.942;2023-06-22T03:13:01;18.80;99.90
34279;DHT22;20538;51.528;9.942;2023-06-22T03:15:27;18.80;99.90
34279;DHT22;20538;51.528;9.942;2023-06-22T03:17:54;18.90;99.90
34279;DHT22;20538;51.528;9.942;2023-06-22T03:20:20;18.90;99.90
34279;DHT22;20538;51.528;9.942;2023-06-22T03:22:46;18.90;99.90
34279;DHT22;20538;51.528;9.942;2023-06-22T03:25:14;18.90;99.90
34279;DHT22;20538;51.528;9.942;2023-06-22T03:27:40;18.90;99.90
34279;DHT22;20538;51.528;9.942;2023-06-22T03:30:08;18.90;99.90
34279;DHT22;20538;51.528;9.942;2023-06-22T03:32:33;19.00;99.90
34279;DHT22;20538;51.528;9.942;2023-06-22T03:34:59;18.90;99.90
34279;DHT22;20538;51.528;9.942;2023-06-22T03:37:25;18.90;99.90
34279;DHT22;20538;51.528;9.942;2023-06-22T03:39:51;18.90;99.90
34279;DHT22;20538;51.528;9.942;2023-06-22T03:42:17;18.90;99.90
34279;DHT22;20538;51.528;9.942;2023-06-22T03:44:43;18.90;99.90
34279;DHT22;20538;51.528;9.942;2023-06-22T03:47:09;19.00;99.90
34279;DHT22;20538;51.528;9.942;2023-06-22T03:49:35;19.10;99.90
34279;DHT22;20538;51.528;9.942;2023-06-22T03:52:02;19.10;99.90
34279;DHT22;20538;51.528;9.942;2023-06-22T03:54:29;19.10;99.90
34279;DHT22;20538;51.528;9.942;2023-06-22T03:56:56;19.10;99.90
34279;DHT22;20538;51.528;9.942;2023-06-22T03:59:22;19.10;99.90
34279;DHT22;20538;51.528;9.942;2023-06-22T04:01:48;19.10;99.90
34279;DHT22;20538;51.528;9.942;2023-06-22T04:04:13;19.10;99.90
34279;DHT22;20538;51.528;9.942;2023-06-22T04:06:39;19.10;99.90
34279;DHT22;20538;51.528;9.942;2023-06-22T04:09:06;19.20;99.90
34279;DHT22;20538;51.528;9.942;2023-06-22T04:11:32;19.00;99.90
34279;DHT22;20538;51.528;9.942;2023-06-22T04:13:57;19.00;99.90
34279;DHT22;20538;51.528;9.942;2023-06-22T04:16:23;19.00;99.90
34279;DHT22;20538;51.528;9.942;2023-06-22T04:18:48;19.00;99.90
34279;DHT22;20538;51.528;9.942;2023-06-22T04:21:14;19.10;99.90
34279;DHT22;20538;51.528;9.942;2023-06-22T04:23:39;19.20;99.90
34279;DHT22;20538;51.528;9.942;2023-06-22T04:26:05;19.20;99.90
34279;DHT22;20538;51.528;9.942;2023-06-22T04:28:31;19.10;99.90
34279;DHT22;20538;51.528;9.942;2023-06-22T04:31:03;19.00;99.90
34279;DHT22;20538;51.528;9.942;2023-06-22T04:33:29;18.90;99.90
34279;DHT22;20538;51.528;9.942;2023-06-22T04:35:55;19.00;99.90
34279;DHT22;20538;51.528;9.942;2023-06-22T04:38:22;19.00;99.90
34279;DHT22;20538;51.528;9.942;2023-06-22T04:40:48;19.00;99.90
34279;DHT22;20538;51.528;9.942;2023-06-22T04:43:14;19.00;99.90
34279;DHT22;20538;51.528;9.942;2023-06-22T04:45:40;19.00;99.90
34279;DHT22;20538;51.528;9.942;2023-06-22T04:48:05;19.00;99.90
34279;DHT22;20538;51.528;9.942;2023-06-22T04:50:31;19.00;99.90
34279;DHT22;20538;51.528;9.942;2023-06-22T04:52:57;19.00;99.90
34279;DHT22;20538;51.528;9.942;2023-06-22T04:55:23;19.10;99.90
34279;DHT22;20538;51.528;9.942;2023-06-22T04:57:51;19.10;99.90
34279;DHT22;20538;51.528;9.942;2023-06-22T05:00:18;19.10;99.90
34279;DHT22;20538;51.528;9.942;2023-06-22T05:02:45;19.00;99.90
34279;DHT22;20538;51.528;9.942;2023-06-22T05:05:15;18.90;99.90
34279;DHT22;20538;51.528;9.942;2023-06-22T05:07:50;19.00;99.90
34279;DHT22;20538;51.528;9.942;2023-06-22T05:10:18;19.10;99.90
34279;DHT22;20538;51.528;9.942;2023-06-22T05:12:46;19.10;99.90
34279;DHT22;20538;51.528;9.942;2023-06-22T05:15:12;19.10;99.90
34279;DHT22;20538;51.528;9.942;2023-06-22T05:17:38;19.20;99.90
34279;DHT22;20538;51.528;9.942;2023-06-22T05:20:09;19.20;99.90
34279;DHT22;20538;51.528;9.942;2023-06-22T05:22:35;19.30;99.90
34279;DHT22;20538;51.528;9.942;2023-06-22T05:25:01;19.30;99.90
34279;DHT22;20538;51.528;9.942;2023-06-22T05:27:26;19.40;99.90
34279;DHT22;20538;51.528;9.942;2023-06-22T05:29:52;19.40;99.90
34279;DHT22;20538;51.528;9.942;2023-06-22T05:32:18;19.40;99.90
34279;DHT22;20538;51.528;9.942;2023-06-22T05:34:44;19.40;99.90
34279;DHT22;20538;51.528;9.942;2023-06-22T05:37:09;19.30;99.90
34279;DHT22;20538;51.528;9.942;2023-06-22T05:39:35;19.30;99.90
34279;DHT22;20538;51.528;9.942;2023-06-22T05:42:07;19.50;99.90
34279;DHT22;20538;51.528;9.942;2023-06-22T05:44:33;19.50;99.90
34279;DHT22;20538;51.528;9.942;2023-06-22T05:46:59;19.70;99.90
34279;DHT22;20538;51.528;9.942;2023-06-22T05:49:25;19.90;99.90
34279;DHT22;20538;51.528;9.942;2023-06-22T05:51:55;19.70;99.90
34279;DHT22;20538;51.528;9.942;2023-06-22T05:54:22;19.80;99.90
34279;DHT22;20538;51.528;9.942;2023-06-22T05:56:47;19.90;99.90
34279;DHT22;20538;51.528;9.942;2023-06-22T05:59:13;19.90;99.90
34279;DHT22;20538;51.528;9.942;2023-06-22T06:01:38;20.20;99.90
34279;DHT22;20538;51.528;9.942;2023-06-22T06:04:05;20.10;99.90
34279;DHT22;20538;51.528;9.942;2023-06-22T06:06:33;20.40;99.90
34279;DHT22;20538;51.528;9.942;2023-06-22T06:09:00;20.70;99.90
34279;DHT22;20538;51.528;9.942;2023-06-22T06:11:28;20.40;99.90
34279;DHT22;20538;51.528;9.942;2023-06-22T06:13:54;20.70;99.90
34279;DHT22;20538;51.528;9.942;2023-06-22T06:16:20;20.60;99.90
34279;DHT22;20538;51.528;9.942;2023-06-22T06:18:46;20.40;99.90
34279;DHT22;20538;51.528;9.942;2023-06-22T06:21:12;20.40;99.90
34279;DHT22;20538;51.528;9.942;2023-06-22T06:23:38;20.60;99.90
34279;DHT22;20538;51.528;9.942;2023-06-22T06:26:03;21.10;99.90
34279;DHT22;20538;51.528;9.942;2023-06-22T06:28:32;20.90;99.90
34279;DHT22;20538;51.528;9.942;2023-06-22T06:30:58;21.10;99.90
34279;DHT22;20538;51.528;9.942;2023-06-22T06:33:23;21.60;99.90
34279;DHT22;20538;51.528;9.942;2023-06-22T06:35:49;21.20;99.90
34279;DHT22;20538;51.528;9.942;2023-06-22T06:38:15;20.80;99.90
34279;DHT22;20538;51.528;9.942;2023-06-22T06:40:41;21.00;99.90
34279;DHT22;20538;51.528;9.942;2023-06-22T06:43:06;21.20;99.90
34279;DHT22;20538;51.528;9.942;2023-06-22T06:45:32;21.50;99.90
34279;DHT22;20538;51.528;9.942;2023-06-22T06:48:00;21.50;99.90
34279;DHT22;20538;51.528;9.942;2023-06-22T06:50:25;21.90;99.90
34279;DHT22;20538;51.528;9.942;2023-06-22T06:52:51;22.30;99.90
34279;DHT22;20538;51.528;9.942;2023-06-22T06:55:17;22.70;99.90
34279;DHT22;20538;51.528;9.942;2023-06-22T06:57:43;23.00;99.90
34279;DHT22;20538;51.528;9.942;2023-06-22T07:00:11;23.40;99.90
34279;DHT22;20538;51.528;9.942;2023-06-22T07:02:39;23.10;99.90
34279;DHT22;20538;51.528;9.942;2023-06-22T07:05:06;23.00;99.90
34279;DHT22;20538;51.528;9.942;2023-06-22T07:07:32;23.40;99.90
34279;DHT22;20538;51.528;9.942;2023-06-22T07:09:58;23.20;99.90
34279;DHT22;20538;51.528;9.942;2023-06-22T07:12:24;23.50;99.90
34279;DHT22;20538;51.528;9.942;2023-06-22T07:14:49;23.40;99.90
34279;DHT22;20538;51.528;9.942;2023-06-22T07:17:16;23.60;99.90
34279;DHT22;20538;51.528;9.942;2023-06-22T07:19:42;24.10;99.90
34279;DHT22;20538;51.528;9.942;2023-06-22T07:22:08;24.20;99.90
34279;DHT22;20538;51.528;9.942;2023-06-22T07:24:34;24.50;99.90
34279;DHT22;20538;51.528;9.942;2023-06-22T07:27:00;23.70;99.90
34279;DHT22;20538;51.528;9.942;2023-06-22T07:29:25;23.80;99.90
34279;DHT22;20538;51.528;9.942;2023-06-22T07:31:52;24.00;99.90
34279;DHT22;20538;51.528;9.942;2023-06-22T07:34:18;24.20;99.90
34279;DHT22;20538;51.528;9.942;2023-06-22T07:36:44;24.30;99.90
34279;DHT22;20538;51.528;9.942;2023-06-22T07:39:10;24.70;99.90
34279;DHT22;20538;51.528;9.942;2023-06-22T07:41:37;24.80;99.90
34279;DHT22;20538;51.528;9.942;2023-06-22T07:44:04;25.10;99.90
34279;DHT22;20538;51.528;9.942;2023-06-22T07:46:29;25.30;99.90
34279;DHT22;20538;51.528;9.942;2023-06-22T07:48:56;24.80;99.90
34279;DHT22;20538;51.528;9.942;2023-06-22T07:51:22;24.40;99.90
34279;DHT22;20538;51.528;9.942;2023-06-22T07:53:48;24.60;99.90
34279;DHT22;20538;51.528;9.942;2023-06-22T07:56:14;24.80;99.90
34279;DHT22;20538;51.528;9.942;2023-06-22T07:58:44;25.20;99.90
34279;DHT22;20538;51.528;9.942;2023-06-22T08:01:11;25.40;99.90
34279;DHT22;20538;51.528;9.942;2023-06-22T08:03:37;25.70;99.90
34279;DHT22;20538;51.528;9.942;2023-06-22T08:06:02;26.00;99.90
34279;DHT22;20538;51.528;9.942;2023-06-22T08:08:28;26.30;99.90
34279;DHT22;20538;51.528;9.942;2023-06-22T08:10:55;26.40;99.90
34279;DHT22;20538;51.528;9.942;2023-06-22T08:13:21;26.30;99.90
34279;DHT22;20538;51.528;9.942;2023-06-22T08:15:48;26.30;99.90
34279;DHT22;20538;51.528;9.942;2023-06-22T08:18:16;26.10;99.90
34279;DHT22;20538;51.528;9.942;2023-06-22T08:20:42;26.10;99.90
34279;DHT22;20538;51.528;9.942;2023-06-22T08:23:08;25.90;99.90
34279;DHT22;20538;51.528;9.942;2023-06-22T08:25:35;25.90;99.90
34279;DHT22;20538;51.528;9.942;2023-06-22T08:28:04;26.00;99.90
34279;DHT22;20538;51.528;9.942;2023-06-22T08:30:30;26.00;99.90
34279;DHT22;20538;51.528;9.942;2023-06-22T08:32:57;26.00;99.90
34279;DHT22;20538;51.528;9.942;2023-06-22T08:35:23;25.80;99.90
34279;DHT22;20538;51.528;9.942;2023-06-22T08:37:49;25.90;99.90
34279;DHT22;20538;51.528;9.942;2023-06-22T08:40:20;25.90;99.90
34279;DHT22;20538;51.528;9.942;2023-06-22T08:42:48;25.90;99.90
34279;DHT22;20538;51.528;9.942;2023-06-22T08:45:15;26.00;99.90
34279;DHT22;20538;51.528;9.942;2023-06-22T08:47:41;26.00;99.90
34279;DHT22;20538;51.528;9.942;2023-06-22T08:50:10;26.10;99.90
34279;DHT22;20538;51.528;9.942;2023-06-22T08:52:37;26.10;99.90
34279;DHT22;20538;51.528;9.942;2023-06-22T08:55:04;26.10;99.90
34279;DHT22;20538;51.528;9.942;2023-06-22T08:57:29;26.10;99.90
34279;DHT22;20538;51.528;9.942;2023-06-22T08:59:56;26.20;99.90
34279;DHT22;20538;51.528;9.942;2023-06-22T09:02:27;26.30;99.90
34279;DHT22;20538;51.528;9.942;2023-06-22T09:05:02;26.30;99.90
34279;DHT22;20538;51.528;9.942;2023-06-22T09:07:28;26.30;99.90
34279;DHT22;20538;51.528;9.942;2023-06-22T09:09:55;26.20;99.90
34279;DHT22;20538;51.528;9.942;2023-06-22T09:12:20;26.40;99.90
34279;DHT22;20538;51.528;9.942;2023-06-22T09:14:51;26.70;99.90
34279;DHT22;20538;51.528;9.942;2023-06-22T09:17:16;26.90;99.90
34279;DHT22;20538;51.528;9.942;2023-06-22T09:19:42;26.80;99.90
34279;DHT22;20538;51.528;9.942;2023-06-22T09:22:08;26.50;99.90
34279;DHT22;20538;51.528;9.942;2023-06-22T09:24:34;26.70;99.90
34279;DHT22;20538;51.528;9.942;2023-06-22T09:27:00;26.50;99.90
34279;DHT22;20538;51.528;9.942;2023-06-22T09:29:25;26.40;99.90
34279;DHT22;20538;51.528;9.942;2023-06-22T09:31:51;26.60;99.90
34279;DHT22;20538;51.528;9.942;2023-06-22T09:34:19;27.00;99.90
34279;DHT22;20538;51.528;9.942;2023-06-22T09:36:48;27.00;99.90
34279;DHT22;20538;51.528;9.942;2023-06-22T09:39:14;26.80;99.90
34279;DHT22;20538;51.528;9.942;2023-06-22T09:41:40;26.90;99.90
34279;DHT22;20538;51.528;9.942;2023-06-22T09:44:05;27.30;99.90
34279;DHT22;20538;51.528;9.942;2023-06-22T09:46:31;27.30;99.90
34279;DHT22;20538;51.528;9.942;2023-06-22T09:48:57;27.10;99.90
34279;DHT22;20538;51.528;9.942;2023-06-22T09:51:22;27.40;99.90
34279;DHT22;20538;51.528;9.942;2023-06-22T09:53:49;27.60;99.90
34279;DHT22;20538;51.528;9.942;2023-06-22T09:56:15;27.60;99.90
34279;DHT22;20538;51.528;9.942;2023-06-22T09:58:45;27.80;99.90
34279;DHT22;20538;51.528;9.942;2023-06-22T10:01:11;27.60;99.90
34279;DHT22;20538;51.528;9.942;2023-06-22T10:03:37;27.70;99.90
34279;DHT22;20538;51.528;9.942;2023-06-22T10:06:03;27.80;99.90
34279;DHT22;20538;51.528;9.942;2023-06-22T10:08:29;28.10;99.90
34279;DHT22;20538;51.528;9.942;2023-06-22T10:10:55;28.20;99.90
34279;DHT22;20538;51.528;9.942;2023-06-22T10:13:20;27.80;99.90
34279;DHT22;20538;51.528;9.942;2023-06-22T10:15:46;28.20;99.90
34279;DHT22;20538;51.528;9.942;2023-06-22T10:18:18;28.60;99.90
34279;DHT22;20538;51.528;9.942;2023-06-22T10:20:47;27.70;99.90
34279;DHT22;20538;51.528;9.942;2023-06-22T10:23:14;27.70;99.90
34279;DHT22;20538;51.528;9.942;2023-06-22T10:25:40;28.00;99.90
34279;DHT22;20538;51.528;9.942;2023-06-22T10:28:05;28.30;99.90
34279;DHT22;20538;51.528;9.942;2023-06-22T10:30:31;28.50;99.90
34279;DHT22;20538;51.528;9.942;2023-06-22T10:33:01;28.50;99.90
34279;DHT22;20538;51.528;9.942;2023-06-22T10:35:26;28.30;99.90
34279;DHT22;20538;51.528;9.942;2023-06-22T10:37:52;28.30;99.90
34279;DHT22;20538;51.528;9.942;2023-06-22T10:40:20;28.30;99.90
34279;DHT22;20538;51.528;9.942;2023-06-22T10:42:46;28.40;99.90
34279;DHT22;20538;51.528;9.942;2023-06-22T10:45:12;28.70;99.90
34279;DHT22;20538;51.528;9.942;2023-06-22T10:47:39;28.70;99.90
34279;DHT22;20538;51.528;9.942;2023-06-22T10:50:05;28.50;99.90
34279;DHT22;20538;51.528;9.942;2023-06-22T10:52:31;28.70;99.90
34279;DHT22;20538;51.528;9.942;2023-06-22T10:54:57;28.50;99.90
34279;DHT22;20538;51.528;9.942;2023-06-22T10:57:23;28.80;99.90
34279;DHT22;20538;51.528;9.942;2023-06-22T10:59:49;29.00;99.90
34279;DHT22;20538;51.528;9.942;2023-06-22T11:02:14;29.50;99.90
34279;DHT22;20538;51.528;9.942;2023-06-22T11:04:46;29.90;99.90
34279;DHT22;20538;51.528;9.942;2023-06-22T11:07:13;29.80;99.90
34279;DHT22;20538;51.528;9.942;2023-06-22T11:09:38;28.70;99.90
34279;DHT22;20538;51.528;9.942;2023-06-22T11:12:05;28.70;99.90
34279;DHT22;20538;51.528;9.942;2023-06-22T11:14:31;29.00;99.90
34279;DHT22;20538;51.528;9.942;2023-06-22T11:16:59;29.30;99.90
34279;DHT22;20538;51.528;9.942;2023-06-22T11:19:25;29.40;99.90
34279;DHT22;20538;51.528;9.942;2023-06-22T11:21:50;29.70;99.90
34279;DHT22;20538;51.528;9.942;2023-06-22T11:24:16;29.60;99.90
34279;DHT22;20538;51.528;9.942;2023-06-22T11:26:43;28.70;99.90
34279;DHT22;20538;51.528;9.942;2023-06-22T11:29:08;28.70;99.90
34279;DHT22;20538;51.528;9.942;2023-06-22T11:31:35;28.30;99.90
34279;DHT22;20538;51.528;9.942;2023-06-22T11:34:01;28.80;99.90
34279;DHT22;20538;51.528;9.942;2023-06-22T11:36:28;29.10;99.90
34279;DHT22;20538;51.528;9.942;2023-06-22T11:38:54;29.10;99.90
34279;DHT22;20538;51.528;9.942;2023-06-22T11:41:20;29.00;99.90
34279;DHT22;20538;51.528;9.942;2023-06-22T11:43:46;29.00;99.90
34279;DHT22;20538;51.528;9.942;2023-06-22T11:46:11;28.80;99.90
34279;DHT22;20538;51.528;9.942;2023-06-22T11:48:37;29.00;99.90
34279;DHT22;20538;51.528;9.942;2023-06-22T11:51:03;28.80;99.90
34279;DHT22;20538;51.528;9.942;2023-06-22T11:53:29;29.20;99.90
34279;DHT22;20538;51.528;9.942;2023-06-22T11:55:55;29.30;99.90
34279;DHT22;20538;51.528;9.942;2023-06-22T11:58:22;29.10;99.90
34279;DHT22;20538;51.528;9.942;2023-06-22T12:00:48;29.00;99.90
34279;DHT22;20538;51.528;9.942;2023-06-22T12:03:13;29.20;99.90
34279;DHT22;20538;51.528;9.942;2023-06-22T12:05:40;29.30;99.90
34279;DHT22;20538;51.528;9.942;2023-06-22T12:08:06;29.50;99.90
34279;DHT22;20538;51.528;9.942;2023-06-22T12:10:32;29.70;99.90
34279;DHT22;20538;51.528;9.942;2023-06-22T12:12:57;30.00;99.90
34279;DHT22;20538;51.528;9.942;2023-06-22T12:15:25;30.10;99.90
34279;DHT22;20538;51.528;9.942;2023-06-22T12:17:51;30.10;99.90
34279;DHT22;20538;51.528;9.942;2023-06-22T12:20:16;30.10;99.90
34279;DHT22;20538;51.528;9.942;2023-06-22T12:22:42;30.10;99.90
34279;DHT22;20538;51.528;9.942;2023-06-22T12:25:08;29.90;99.90
34279;DHT22;20538;51.528;9.942;2023-06-22T12:27:35;29.90;99.90
34279;DHT22;20538;51.528;9.942;2023-06-22T12:30:02;30.00;99.90
34279;DHT22;20538;51.528;9.942;2023-06-22T12:32:28;30.10;99.90
34279;DHT22;20538;51.528;9.942;2023-06-22T12:34:55;29.90;99.90
34279;DHT22;20538;51.528;9.942;2023-06-22T12:37:21;29.40;99.90
34279;DHT22;20538;51.528;9.942;2023-06-22T12:39:55;29.60;99.90
34279;DHT22;20538;51.528;9.942;2023-06-22T12:42:21;29.40;99.90
34279;DHT22;20538;51.528;9.942;2023-06-22T12:44:46;29.40;99.90
34279;DHT22;20538;51.528;9.942;2023-06-22T12:47:12;29.70;99.90
34279;DHT22;20538;51.528;9.942;2023-06-22T12:49:38;29.80;99.90
34279;DHT22;20538;51.528;9.942;2023-06-22T12:52:09;29.70;99.90
34279;DHT22;20538;51.528;9.942;2023-06-22T12:54:35;29.80;99.90
34279;DHT22;20538;51.528;9.942;2023-06-22T12:57:04;29.40;99.90
34279;DHT22;20538;51.528;9.942;2023-06-22T12:59:30;29.20;99.90
34279;DHT22;20538;51.528;9.942;2023-06-22T13:01:55;29.00;99.90
34279;DHT22;20538;51.528;9.942;2023-06-22T13:04:21;29.20;99.90
34279;DHT22;20538;51.528;9.942;2023-06-22T13:06:47;29.10;99.90
34279;DHT22;20538;51.528;9.942;2023-06-22T13:09:17;29.10;99.90
34279;DHT22;20538;51.528;9.942;2023-06-22T13:11:43;28.80;99.90
34279;DHT22;20538;51.528;9.942;2023-06-22T13:14:08;29.40;99.90
34279;DHT22;20538;51.528;9.942;2023-06-22T13:16:34;29.50;99.90
34279;DHT22;20538;51.528;9.942;2023-06-22T13:19:00;29.90;99.90
34279;DHT22;20538;51.528;9.942;2023-06-22T13:21:25;29.50;99.90
34279;DHT22;20538;51.528;9.942;2023-06-22T13:23:51;29.80;99.90
34279;DHT22;20538;51.528;9.942;2023-06-22T13:26:17;29.70;99.90
34279;DHT22;20538;51.528;9.942;2023-06-22T13:28:43;30.20;99.90
34279;DHT22;20538;51.528;9.942;2023-06-22T13:31:09;29.90;99.90
34279;DHT22;20538;51.528;9.942;2023-06-22T13:33:35;30.30;99.90
34279;DHT22;20538;51.528;9.942;2023-06-22T13:36:01;29.90;99.90
34279;DHT22;20538;51.528;9.942;2023-06-22T13:38:29;29.50;99.90
34279;DHT22;20538;51.528;9.942;2023-06-22T13:40:56;29.70;99.90
34279;DHT22;20538;51.528;9.942;2023-06-22T13:43:24;29.30;99.90
34279;DHT22;20538;51.528;9.942;2023-06-22T13:45:50;29.40;99.90
34279;DHT22;20538;51.528;9.942;2023-06-22T13:48:15;29.70;99.90
34279;DHT22;20538;51.528;9.942;2023-06-22T13:50:41;30.20;99.90
34279;DHT22;20538;51.528;9.942;2023-06-22T13:53:07;30.20;99.90
34279;DHT22;20538;51.528;9.942;2023-06-22T13:55:32;30.50;99.90
34279;DHT22;20538;51.528;9.942;2023-06-22T13:57:58;30.20;99.90
34279;DHT22;20538;51.528;9.942;2023-06-22T14:00:23;30.30;99.90
34279;DHT22;20538;51.528;9.942;2023-06-22T14:02:49;29.90;99.90
34279;DHT22;20538;51.528;9.942;2023-06-22T14:05:14;29.90;99.90
34279;DHT22;20538;51.528;9.942;2023-06-22T14:07:40;29.60;99.90
34279;DHT22;20538;51.528;9.942;2023-06-22T14:10:06;29.60;99.90
34279;DHT22;20538;51.528;9.942;2023-06-22T14:12:32;29.10;99.90
34279;DHT22;20538;51.528;9.942;2023-06-22T14:14:57;29.00;99.90
34279;DHT22;20538;51.528;9.942;2023-06-22T14:17:23;28.70;99.90
34279;DHT22;20538;51.528;9.942;2023-06-22T14:19:52;28.70;99.90
34279;DHT22;20538;51.528;9.942;2023-06-22T14:22:21;28.80;99.90
34279;DHT22;20538;51.528;9.942;2023-06-22T14:24:48;28.80;99.90
34279;DHT22;20538;51.528;9.942;2023-06-22T14:27:15;28.60;99.90
34279;DHT22;20538;51.528;9.942;2023-06-22T14:29:41;28.60;99.90
34279;DHT22;20538;51.528;9.942;2023-06-22T14:32:07;28.40;99.90
34279;DHT22;20538;51.528;9.942;2023-06-22T14:34:34;28.20;99.90
34279;DHT22;20538;51.528;9.942;2023-06-22T14:37:02;28.10;99.90
34279;DHT22;20538;51.528;9.942;2023-06-22T14:39:28;27.90;99.90
34279;DHT22;20538;51.528;9.942;2023-06-22T14:41:53;27.90;99.90
34279;DHT22;20538;51.528;9.942;2023-06-22T14:44:19;27.70;99.90
34279;DHT22;20538;51.528;9.942;2023-06-22T14:46:45;27.60;99.90
34279;DHT22;20538;51.528;9.942;2023-06-22T14:49:10;27.50;99.90
34279;DHT22;20538;51.528;9.942;2023-06-22T14:51:36;27.50;99.90
34279;DHT22;20538;51.528;9.942;2023-06-22T14:54:02;27.50;99.90
34279;DHT22;20538;51.528;9.942;2023-06-22T14:56:27;27.50;99.90
34279;DHT22;20538;51.528;9.942;2023-06-22T14:58:53;27.50;99.90
34279;DHT22;20538;51.528;9.942;2023-06-22T15:01:19;27.50;99.90
34279;DHT22;20538;51.528;9.942;2023-06-22T15:03:44;27.40;99.90
34279;DHT22;20538;51.528;9.942;2023-06-22T15:06:10;27.40;99.90
34279;DHT22;20538;51.528;9.942;2023-06-22T15:08:40;27.40;99.90
34279;DHT22;20538;51.528;9.942;2023-06-22T15:11:06;27.40;99.90
34279;DHT22;20538;51.528;9.942;2023-06-22T15:13:31;27.20;99.90
34279;DHT22;20538;51.528;9.942;2023-06-22T15:16:00;27.00;99.90
34279;DHT22;20538;51.528;9.942;2023-06-22T15:18:25;25.90;99.90
34279;DHT22;20538;51.528;9.942;2023-06-22T15:20:52;25.30;99.90
34279;DHT22;20538;51.528;9.942;2023-06-22T15:23:18;24.10;99.90
34279;DHT22;20538;51.528;9.942;2023-06-22T15:25:44;22.90;99.90
34279;DHT22;20538;51.528;9.942;2023-06-22T15:28:12;20.30;99.90
34279;DHT22;20538;51.528;9.942;2023-06-22T15:30:38;19.70;99.90
34279;DHT22;20538;51.528;9.942;2023-06-22T15:33:04;19.60;99.90